createdAt,value
2023-03-08T00:02:23.028Z,7.25
2023-03-08T00:04:52.800Z,7.90
2023-03-08T00:07:22.631Z,8.13
2023-03-08T00:09:52.428Z,7.88
2023-03-08T00:12:24.806Z,8.93
2023-03-08T00:14:55.075Z,10.15
2023-03-08T00:17:24.921Z,8.02
2023-03-08T00:19:54.947Z,8.38
2023-03-08T00:22:24.747Z,10.75
2023-03-08T00:24:55.997Z,7.93
2023-03-08T00:27:28.302Z,9.65
2023-03-08T00:29:58.020Z,7.40
2023-03-08T00:32:28.380Z,13.15
2023-03-08T00:34:58.239Z,8.07
2023-03-08T00:37:28.009Z,10.13
2023-03-08T00:39:57.991Z,8.15
2023-03-08T00:42:30.459Z,9.55
2023-03-08T00:45:00.281Z,9.80
2023-03-08T00:47:30.142Z,9.35
2023-03-08T00:50:00.236Z,9.02
2023-03-08T00:52:30.058Z,11.85
2023-03-08T00:54:59.997Z,8.50
2023-03-08T00:57:33.264Z,13.13
2023-03-08T01:00:08.283Z,9.00
2023-03-08T01:02:41.193Z,10.05
2023-03-08T01:05:12.328Z,10.43
2023-03-08T01:07:42.572Z,9.93
2023-03-08T01:10:13.930Z,11.23
2023-03-08T01:12:46.261Z,13.35
2023-03-08T01:15:16.351Z,12.50
2023-03-08T01:17:46.129Z,11.55
2023-03-08T01:20:16.274Z,11.07
2023-03-08T01:22:45.976Z,11.13
2023-03-08T01:25:15.691Z,11.20
2023-03-08T01:27:47.979Z,11.82
2023-03-08T01:30:18.304Z,12.45
2023-03-08T01:32:48.100Z,13.10
2023-03-08T01:35:18.020Z,12.65
2023-03-08T01:37:47.799Z,15.48
2023-03-08T01:40:18.637Z,11.27
2023-03-08T01:42:51.144Z,13.02
2023-03-08T01:46:02.904Z,13.20
2023-03-08T01:48:36.527Z,15.05
2023-03-08T01:51:09.366Z,15.70
2023-03-08T01:53:41.694Z,14.52
2023-03-08T01:56:14.410Z,13.20
2023-03-08T01:58:48.747Z,16.67
2023-03-08T02:01:19.018Z,15.00
2023-03-08T02:03:49.886Z,14.25
2023-03-08T02:06:20.630Z,16.50
2023-03-08T02:08:50.467Z,17.05
2023-03-08T02:11:23.251Z,17.58
2023-03-08T02:13:57.207Z,16.95
2023-03-08T02:16:27.028Z,17.42
2023-03-08T02:18:59.438Z,14.07
2023-03-08T02:21:30.569Z,14.77
2023-03-08T02:24:08.535Z,17.52
2023-03-08T02:26:39.821Z,15.63
2023-03-08T02:29:09.698Z,14.90
2023-03-08T02:31:39.436Z,14.90
2023-03-08T02:34:09.309Z,17.50
2023-03-08T02:36:39.193Z,14.90
2023-03-08T02:39:11.636Z,14.93
2023-03-08T02:41:41.459Z,15.88
2023-03-08T02:44:11.277Z,17.02
2023-03-08T02:46:41.075Z,14.50
2023-03-08T02:49:10.798Z,13.57
2023-03-08T02:51:40.495Z,17.13
2023-03-08T02:54:13.181Z,16.52
2023-03-08T02:56:43.968Z,14.90
2023-03-08T02:59:13.722Z,15.32
2023-03-08T03:01:43.618Z,14.07
2023-03-08T03:04:13.397Z,17.40
2023-03-08T03:06:43.295Z,15.18
2023-03-08T03:09:15.674Z,16.23
2023-03-08T03:11:45.510Z,13.55
2023-03-08T03:14:15.259Z,15.95
2023-03-08T03:16:45.094Z,15.32
2023-03-08T03:19:15.132Z,15.60
2023-03-08T03:21:44.946Z,15.63
2023-03-08T03:24:17.459Z,15.02
2023-03-08T03:26:47.213Z,14.13
2023-03-08T03:29:16.932Z,13.75
2023-03-08T03:31:46.749Z,14.70
2023-03-08T03:34:16.684Z,13.07
2023-03-08T03:36:46.399Z,15.43
2023-03-08T03:39:18.763Z,22.02
2023-03-08T03:41:48.507Z,14.77
2023-03-08T03:44:18.218Z,16.17
2023-03-08T03:46:47.999Z,13.73
2023-03-08T03:49:17.838Z,14.63
2023-03-08T03:51:47.700Z,14.50
2023-03-08T03:54:20.122Z,16.52
2023-03-08T03:56:50.082Z,18.42
2023-03-08T03:59:19.821Z,16.98
2023-03-08T04:01:49.589Z,15.10
2023-03-08T04:04:19.495Z,14.93
2023-03-08T04:06:49.359Z,15.05
2023-03-08T04:09:22.329Z,13.60
2023-03-08T04:11:52.077Z,15.23
2023-03-08T04:14:21.894Z,14.95
2023-03-08T04:16:51.633Z,14.20
2023-03-08T04:19:21.392Z,13.85
2023-03-08T04:21:51.358Z,15.25
2023-03-08T04:24:23.663Z,17.92
2023-03-08T04:26:53.485Z,14.40
2023-03-08T04:29:23.413Z,14.32
2023-03-08T04:31:55.698Z,13.25
2023-03-08T04:34:25.493Z,13.80
2023-03-08T04:36:55.235Z,14.57
2023-03-08T04:39:27.731Z,15.52
2023-03-08T04:41:57.492Z,11.98
2023-03-08T04:44:27.270Z,14.38
2023-03-08T04:46:57.152Z,15.02
2023-03-08T04:49:27.305Z,14.45
2023-03-08T04:51:57.070Z,10.82
2023-03-08T04:54:29.456Z,13.23
2023-03-08T04:56:59.366Z,11.50
2023-03-08T04:59:29.134Z,12.80
2023-03-08T05:01:58.983Z,14.88
2023-03-08T05:04:28.825Z,14.95
2023-03-08T05:06:58.542Z,14.90
2023-03-08T05:09:30.831Z,14.85
2023-03-08T05:12:00.644Z,21.67
2023-03-08T05:14:30.392Z,14.93
2023-03-08T05:17:02.518Z,15.18
2023-03-08T05:19:32.557Z,15.93
2023-03-08T05:22:02.277Z,15.18
2023-03-08T05:24:34.801Z,15.30
2023-03-08T05:27:04.529Z,16.85
2023-03-08T05:29:34.899Z,13.02
2023-03-08T05:32:05.980Z,14.85
2023-03-08T05:34:35.805Z,15.35
2023-03-08T05:37:05.564Z,16.33
2023-03-08T05:39:37.949Z,17.45
2023-03-08T05:42:08.426Z,16.73
2023-03-08T05:44:38.677Z,15.85
2023-03-08T05:47:08.873Z,13.65
2023-03-08T05:49:38.624Z,14.18
2023-03-08T05:52:08.751Z,14.40
2023-03-08T05:54:41.459Z,14.35
2023-03-08T05:57:11.349Z,16.33
2023-03-08T05:59:41.091Z,16.92
2023-03-08T06:02:11.012Z,16.02
2023-03-08T06:04:40.872Z,15.65
2023-03-08T06:07:10.662Z,17.08
2023-03-08T06:09:43.033Z,16.33
2023-03-08T06:12:12.840Z,12.57
2023-03-08T06:14:42.572Z,15.25
2023-03-08T06:17:12.316Z,14.80
2023-03-08T06:19:42.130Z,12.73
2023-03-08T06:22:11.822Z,13.95
2023-03-08T06:24:44.123Z,18.23
2023-03-08T06:27:13.819Z,17.17
2023-03-08T06:29:43.545Z,18.63
2023-03-08T06:32:13.468Z,15.30
2023-03-08T06:34:43.286Z,16.67
2023-03-08T06:37:13.067Z,17.85
2023-03-08T06:39:45.426Z,16.95
2023-03-08T06:42:15.179Z,20.60
2023-03-08T06:44:44.978Z,19.52
2023-03-08T06:47:14.722Z,15.77
2023-03-08T06:49:46.833Z,17.00
2023-03-08T06:52:16.683Z,18.33
2023-03-08T06:54:48.997Z,19.05
2023-03-08T06:57:18.885Z,18.85
2023-03-08T06:59:48.592Z,17.98
2023-03-08T07:02:18.359Z,19.58
2023-03-08T07:04:49.613Z,17.55
2023-03-08T07:07:19.668Z,17.10
2023-03-08T07:09:52.210Z,18.20
2023-03-08T07:12:21.952Z,21.05
2023-03-08T07:14:51.780Z,17.08
2023-03-08T07:17:22.032Z,18.15
2023-03-08T07:19:51.835Z,20.83
2023-03-08T07:22:21.571Z,18.60
2023-03-08T07:24:53.919Z,15.82
2023-03-08T07:27:23.660Z,16.13
2023-03-08T07:29:55.290Z,16.35
2023-03-08T07:32:29.015Z,16.38
2023-03-08T07:34:59.347Z,17.40
2023-03-08T07:37:29.162Z,16.45
2023-03-08T07:40:01.547Z,17.52
2023-03-08T07:42:31.345Z,19.48
2023-03-08T07:45:01.330Z,18.55
2023-03-08T07:47:31.122Z,19.55
2023-03-08T07:50:01.190Z,17.40
2023-03-08T07:52:31.302Z,20.80
2023-03-08T07:55:04.641Z,22.33
2023-03-08T07:57:34.598Z,19.48
2023-03-08T08:00:07.723Z,19.48
2023-03-08T08:02:38.063Z,23.10
2023-03-08T08:05:08.773Z,18.25
2023-03-08T08:07:38.675Z,19.30
2023-03-08T08:10:12.360Z,21.42
2023-03-08T08:12:42.143Z,18.80
2023-03-08T08:15:12.979Z,15.35
2023-03-08T08:17:42.782Z,18.40
2023-03-08T08:20:14.745Z,23.65
2023-03-08T08:22:44.557Z,20.02
2023-03-08T08:25:16.919Z,18.65
2023-03-08T08:27:46.692Z,19.45
2023-03-08T08:30:18.342Z,20.40
2023-03-08T08:32:48.276Z,18.38
2023-03-08T08:35:18.127Z,20.15
2023-03-08T08:37:47.863Z,21.35
2023-03-08T08:40:20.654Z,18.13
2023-03-08T08:42:52.119Z,17.00
2023-03-08T08:45:21.868Z,20.23
2023-03-08T08:47:51.650Z,20.50
2023-03-08T08:50:21.545Z,19.42
2023-03-08T08:52:51.370Z,20.42
2023-03-08T08:55:23.719Z,19.95
2023-03-08T08:57:53.674Z,19.17
2023-03-08T09:00:23.644Z,17.38
2023-03-08T09:02:53.508Z,22.13
2023-03-08T09:05:23.416Z,19.83
2023-03-08T09:07:55.615Z,21.52
2023-03-08T09:10:28.313Z,21.00
2023-03-08T09:12:59.045Z,17.40
2023-03-08T09:15:29.776Z,21.58
2023-03-08T09:17:59.647Z,18.95
2023-03-08T09:20:29.881Z,19.67
2023-03-08T09:22:59.859Z,21.77
2023-03-08T09:25:32.243Z,20.38
2023-03-08T09:28:02.064Z,18.77
2023-03-08T09:30:32.941Z,18.20
2023-03-08T09:33:04.116Z,17.75
2023-03-08T09:35:33.903Z,19.00
2023-03-08T09:38:04.530Z,19.25
2023-03-08T09:40:42.716Z,20.33
2023-03-08T09:43:24.131Z,19.33
2023-03-08T09:45:56.860Z,21.40
2023-03-08T09:48:30.225Z,18.40
2023-03-08T09:51:02.361Z,19.65
2023-03-08T09:53:37.973Z,17.65
2023-03-08T09:56:19.447Z,18.50
2023-03-08T09:58:52.590Z,20.40
2023-03-08T10:01:30.492Z,20.60
2023-03-08T10:04:22.855Z,18.95
2023-03-08T10:07:02.405Z,25.38
2023-03-08T10:09:37.052Z,15.40
2023-03-08T10:12:18.029Z,15.30
2023-03-08T10:14:51.495Z,17.50
2023-03-08T10:17:24.845Z,16.40
2023-03-08T10:20:02.089Z,16.27
2023-03-08T10:22:37.039Z,15.80
2023-03-08T10:25:22.655Z,23.25
2023-03-08T10:27:57.195Z,17.70
2023-03-08T10:33:01.418Z,18.73
2023-03-08T10:35:36.581Z,15.48
2023-03-08T10:38:07.272Z,14.50
2023-03-08T10:40:36.972Z,17.63
2023-03-08T10:43:09.758Z,17.42
2023-03-08T10:45:39.596Z,13.60
2023-03-08T10:48:10.117Z,11.52
2023-03-08T10:50:40.590Z,12.80
2023-03-08T10:53:12.615Z,10.30
2023-03-08T10:55:46.943Z,9.82
2023-03-08T10:58:38.716Z,8.35
2023-03-08T11:01:25.151Z,8.20
2023-03-08T11:04:02.375Z,9.48
2023-03-08T11:06:32.165Z,7.40
2023-03-08T11:09:04.343Z,5.85
2023-03-08T11:11:44.153Z,6.47
2023-03-08T11:14:17.963Z,5.88
2023-03-08T11:17:13.105Z,5.80
2023-03-08T11:19:59.887Z,4.75
2023-03-08T11:22:47.787Z,3.83
2023-03-08T11:25:31.761Z,3.97
2023-03-08T11:28:14.350Z,3.70
2023-03-08T11:30:59.002Z,2.00
2023-03-08T11:33:46.834Z,2.63
2023-03-08T11:36:22.166Z,1.40
2023-03-08T11:39:00.831Z,1.77
2023-03-08T11:41:40.908Z,1.75
2023-03-08T11:44:28.014Z,1.38
2023-03-08T11:47:20.235Z,3.38
2023-03-08T11:50:05.913Z,1.52
2023-03-08T11:52:43.029Z,2.20
2023-03-08T11:55:38.468Z,1.20
2023-03-08T11:58:14.590Z,1.40
2023-03-08T12:00:47.431Z,2.17
2023-03-08T12:03:22.895Z,1.90
2023-03-08T12:05:57.571Z,2.63
2023-03-08T12:08:34.415Z,0.60
2023-03-08T12:11:08.184Z,2.17
2023-03-08T12:13:40.443Z,2.15
2023-03-08T12:16:17.616Z,3.53
2023-03-08T12:18:57.259Z,2.00
2023-03-08T12:21:40.385Z,1.48
2023-03-08T12:24:28.045Z,2.55
2023-03-08T12:27:02.679Z,6.05
2023-03-08T12:29:37.240Z,4.32
2023-03-08T12:32:08.863Z,1.10
2023-03-08T12:34:46.359Z,1.35
2023-03-08T12:37:27.638Z,1.20
2023-03-08T12:40:00.772Z,3.63
2023-03-08T12:42:40.073Z,1.88
2023-03-08T12:45:31.126Z,5.72
2023-03-08T12:48:11.799Z,1.08
2023-03-08T12:50:47.290Z,3.22
2023-03-08T12:53:25.999Z,1.45
2023-03-08T12:56:08.495Z,1.63
2023-03-08T12:58:42.007Z,1.88
2023-03-08T13:01:33.620Z,3.35
2023-03-08T13:04:04.345Z,3.15
2023-03-08T13:07:01.642Z,2.50
2023-03-08T13:09:36.035Z,2.28
2023-03-08T13:14:48.085Z,4.07
2023-03-08T13:17:37.530Z,1.08
2023-03-08T13:20:17.095Z,2.28
2023-03-08T13:22:59.212Z,1.50
2023-03-08T13:25:58.289Z,2.78
2023-03-08T13:28:44.531Z,1.30
2023-03-08T13:31:18.775Z,3.97
2023-03-08T13:33:51.447Z,2.15
2023-03-08T13:36:23.925Z,2.78
2023-03-08T13:39:04.291Z,3.30
2023-03-08T13:41:38.897Z,2.13
2023-03-08T13:44:10.678Z,3.65
2023-03-08T13:46:43.130Z,1.42
2023-03-08T13:49:19.291Z,1.30
2023-03-08T13:51:52.564Z,2.40
2023-03-08T13:54:30.009Z,1.30
2023-03-08T13:57:01.202Z,2.55
2023-03-08T13:59:34.640Z,1.30
2023-03-08T14:02:04.503Z,1.83
2023-03-08T14:04:37.398Z,0.93
2023-03-08T14:07:07.940Z,1.48
2023-03-08T14:09:41.307Z,1.13
2023-03-08T14:12:17.713Z,2.45
2023-03-08T14:14:50.760Z,2.45
2023-03-08T14:17:23.963Z,2.30
2023-03-08T14:19:58.081Z,1.50
2023-03-08T14:22:39.295Z,1.48
2023-03-08T14:25:28.637Z,1.17
2023-03-08T14:27:59.307Z,0.93
2023-03-08T14:30:30.995Z,1.23
2023-03-08T14:33:08.518Z,1.52
2023-03-08T14:35:41.403Z,1.27
2023-03-08T14:38:16.640Z,1.85
2023-03-08T14:40:52.427Z,1.77
2023-03-08T14:43:23.812Z,1.50
2023-03-08T14:45:56.950Z,2.30
2023-03-08T14:48:28.667Z,0.90
2023-03-08T14:51:01.509Z,1.17
2023-03-08T14:53:34.574Z,2.10
2023-03-08T14:56:10.222Z,2.33
2023-03-08T14:58:42.543Z,1.95
2023-03-08T15:01:12.411Z,1.58
2023-03-08T15:03:42.175Z,1.85
2023-03-08T15:06:19.926Z,0.88
2023-03-08T15:08:50.279Z,1.67
2023-03-08T15:11:23.515Z,1.35
2023-03-08T15:13:53.726Z,3.38
2023-03-08T15:16:23.650Z,1.40
2023-03-08T15:18:53.464Z,1.45
2023-03-08T15:21:25.920Z,3.20
2023-03-08T15:23:56.748Z,1.17
2023-03-08T15:26:31.591Z,0.95
2023-03-08T15:29:03.512Z,2.33
2023-03-08T15:31:34.022Z,0.80
2023-03-08T15:34:03.862Z,0.88
2023-03-08T15:36:35.661Z,1.27
2023-03-08T15:39:05.757Z,1.58
2023-03-08T15:41:38.136Z,0.77
2023-03-08T15:44:08.270Z,1.10
2023-03-08T15:46:38.125Z,0.73
2023-03-08T15:49:08.542Z,0.88
2023-03-08T15:51:39.503Z,2.05
2023-03-08T15:54:09.778Z,0.85
2023-03-08T15:56:42.112Z,0.90
2023-03-08T15:59:11.886Z,1.27
2023-03-08T16:01:41.722Z,1.98
2023-03-08T16:04:11.534Z,0.95
2023-03-08T16:06:43.775Z,2.13
2023-03-08T16:09:13.574Z,2.15
2023-03-08T16:11:48.132Z,1.48
2023-03-08T16:14:18.713Z,1.17
2023-03-08T16:16:48.518Z,1.15
2023-03-08T16:19:18.370Z,1.35
2023-03-08T16:21:48.162Z,0.90
2023-03-08T16:24:17.921Z,1.15
2023-03-08T16:26:50.231Z,1.73
2023-03-08T16:29:19.958Z,8.15
2023-03-08T16:31:49.901Z,2.00
2023-03-08T16:34:19.792Z,1.65
2023-03-08T16:36:49.583Z,3.35
2023-03-08T16:39:19.424Z,1.75
2023-03-08T16:41:51.976Z,1.33
2023-03-08T16:44:23.568Z,1.88
2023-03-08T16:46:53.703Z,2.17
2023-03-08T16:52:11.990Z,2.15
2023-03-08T16:54:41.750Z,0.90
2023-03-08T16:57:19.388Z,1.73
2023-03-08T16:59:50.437Z,2.38
2023-03-08T17:02:22.093Z,1.30
2023-03-08T17:04:52.475Z,1.88
2023-03-08T17:07:22.565Z,1.23
2023-03-08T17:09:52.592Z,1.17
2023-03-08T17:12:24.968Z,1.35
2023-03-08T17:14:54.965Z,1.17
2023-03-08T17:17:24.726Z,2.85
2023-03-08T17:19:54.827Z,2.95
2023-03-08T17:22:24.603Z,1.02
2023-03-08T17:24:54.402Z,1.75
2023-03-08T17:27:26.875Z,2.33
2023-03-08T17:29:58.406Z,2.33
2023-03-08T17:32:28.275Z,1.52
2023-03-08T17:34:58.090Z,1.30
2023-03-08T17:37:27.919Z,1.10
2023-03-08T17:39:57.673Z,1.23
2023-03-08T17:42:30.077Z,0.93
2023-03-08T17:44:59.915Z,1.48
2023-03-08T17:47:29.652Z,0.95
2023-03-08T17:49:59.410Z,1.70
2023-03-08T17:52:29.230Z,2.33
2023-03-08T17:54:59.207Z,1.00
2023-03-08T17:57:31.582Z,3.35
2023-03-08T18:00:01.341Z,0.80
2023-03-08T18:02:33.622Z,2.90
2023-03-08T18:05:03.840Z,1.70
2023-03-08T18:07:33.818Z,2.17
2023-03-08T18:10:04.453Z,0.88
2023-03-08T18:12:40.170Z,0.50
2023-03-08T18:15:12.788Z,1.08
2023-03-08T18:17:42.618Z,1.17
2023-03-08T18:20:14.442Z,2.03
2023-03-08T18:22:45.714Z,1.65
2023-03-08T18:25:15.583Z,1.23
2023-03-08T18:27:48.140Z,1.55
2023-03-08T18:30:18.532Z,2.67
2023-03-08T18:32:48.309Z,1.33
2023-03-08T18:35:18.518Z,1.00
2023-03-08T18:37:48.283Z,0.95
2023-03-08T18:40:18.089Z,1.65
2023-03-08T18:42:50.502Z,1.58
2023-03-08T18:45:20.940Z,0.68
2023-03-08T18:47:52.855Z,1.52
2023-03-08T18:50:25.142Z,1.65
2023-03-08T18:52:54.997Z,1.20
2023-03-08T18:55:27.259Z,0.95
2023-03-08T18:57:59.582Z,1.38
2023-03-08T19:00:29.524Z,1.05
2023-03-08T19:02:59.254Z,1.38
2023-03-08T19:05:28.972Z,1.42
2023-03-08T19:07:58.822Z,0.70
2023-03-08T19:10:28.656Z,1.67
2023-03-08T19:13:01.018Z,2.17
2023-03-08T19:15:30.782Z,0.98
2023-03-08T19:18:01.643Z,1.70
2023-03-08T19:20:31.426Z,1.70
2023-03-08T19:23:01.177Z,3.35
2023-03-08T19:25:33.530Z,2.65
2023-03-08T19:28:05.946Z,1.65
2023-03-08T19:30:38.392Z,1.60
2023-03-08T19:33:08.144Z,1.42
2023-03-08T19:35:37.921Z,1.55
2023-03-08T19:38:07.806Z,6.03
2023-03-08T19:40:38.823Z,1.90
2023-03-08T19:43:11.182Z,2.05
2023-03-08T19:45:40.975Z,1.13
2023-03-08T19:48:10.804Z,3.13
2023-03-08T19:50:40.577Z,2.22
2023-03-08T19:53:10.267Z,2.17
2023-03-08T19:55:39.987Z,1.02
2023-03-08T19:58:12.322Z,4.88
2023-03-08T20:00:44.102Z,1.50
2023-03-08T20:03:14.352Z,4.43
2023-03-08T20:05:45.818Z,0.60
2023-03-08T20:08:16.231Z,2.40
2023-03-08T20:10:46.023Z,3.13
2023-03-08T20:13:18.387Z,1.45
2023-03-08T20:15:48.482Z,5.05
2023-03-08T20:18:18.363Z,2.75
2023-03-08T20:20:48.345Z,2.97
2023-03-08T20:23:18.717Z,3.90
2023-03-08T20:25:48.679Z,2.95
2023-03-08T20:28:21.256Z,4.90
2023-03-08T20:30:51.070Z,5.88
2023-03-08T20:33:21.004Z,5.68
2023-03-08T20:35:59.396Z,6.43
2023-03-08T20:38:29.968Z,5.18
2023-03-08T20:41:04.716Z,3.53
2023-03-08T20:43:37.124Z,3.83
2023-03-08T20:46:09.459Z,2.30
2023-03-08T20:48:41.323Z,2.50
2023-03-08T20:51:13.686Z,6.80
2023-03-08T20:53:44.045Z,2.58
2023-03-08T20:56:15.801Z,4.25
2023-03-08T20:58:48.434Z,5.45
2023-03-08T21:01:20.671Z,5.00
2023-03-08T21:03:50.696Z,3.45
2023-03-08T21:06:22.914Z,5.85
2023-03-08T21:08:53.451Z,3.70
2023-03-08T21:11:23.487Z,5.05
2023-03-08T21:13:56.574Z,5.10
2023-03-08T21:16:28.762Z,2.90
2023-03-08T21:19:00.386Z,4.25
2023-03-08T21:21:33.491Z,4.97
2023-03-08T21:24:05.317Z,7.25
2023-03-08T21:26:35.574Z,5.03
2023-03-08T21:29:09.880Z,5.03
2023-03-08T21:31:43.237Z,4.53
2023-03-08T21:34:15.262Z,6.15
2023-03-08T21:36:45.620Z,4.18
2023-03-08T21:39:15.713Z,3.83
2023-03-08T21:41:47.458Z,2.80
2023-03-08T21:44:22.182Z,3.88
2023-03-08T21:46:52.865Z,6.97
2023-03-08T21:49:24.749Z,5.30
2023-03-08T21:51:55.858Z,4.97
2023-03-08T21:54:27.334Z,4.15
2023-03-08T21:56:57.418Z,4.45
2023-03-08T21:59:29.745Z,4.53
2023-03-08T22:01:59.922Z,6.05
2023-03-08T22:04:30.972Z,4.72
2023-03-08T22:07:00.832Z,6.70
2023-03-08T22:09:30.688Z,5.60
2023-03-08T22:12:00.493Z,7.57
2023-03-08T22:14:33.423Z,4.38
2023-03-08T22:17:03.368Z,4.80
2023-03-08T22:19:33.138Z,3.33
2023-03-08T22:22:02.909Z,5.25
2023-03-08T22:24:32.944Z,3.20
2023-03-08T22:27:04.629Z,5.50
2023-03-08T22:29:36.938Z,2.10
2023-03-08T22:32:07.418Z,2.72
2023-03-08T22:34:37.636Z,2.25
2023-03-08T22:37:08.173Z,2.83
2023-03-08T22:39:37.915Z,2.28
2023-03-08T22:42:07.940Z,4.47
2023-03-08T22:44:40.320Z,5.05
2023-03-08T22:47:10.074Z,2.58
2023-03-08T22:49:39.886Z,3.03
2023-03-08T22:52:09.828Z,1.70
2023-03-08T22:54:39.888Z,1.45
2023-03-08T22:57:09.735Z,1.58
2023-03-08T22:59:43.448Z,1.85
2023-03-08T23:02:13.274Z,1.77
2023-03-08T23:04:43.558Z,3.05
2023-03-08T23:07:13.332Z,2.25
2023-03-08T23:09:43.284Z,2.25
2023-03-08T23:12:13.066Z,2.00
2023-03-08T23:14:45.486Z,3.35
2023-03-08T23:17:15.234Z,5.47
2023-03-08T23:19:45.697Z,2.33
2023-03-08T23:22:15.540Z,3.17
2023-03-08T23:24:45.607Z,2.10
2023-03-08T23:27:15.504Z,3.83
2023-03-08T23:29:47.811Z,2.17
2023-03-08T23:32:17.572Z,1.75
2023-03-08T23:34:47.349Z,3.55
2023-03-08T23:37:17.130Z,2.90
2023-03-08T23:39:46.930Z,4.18
2023-03-08T23:42:16.742Z,5.05
2023-03-08T23:44:49.060Z,5.53
2023-03-08T23:47:18.828Z,3.15
2023-03-08T23:49:51.627Z,4.22
2023-03-08T23:52:21.430Z,5.57
2023-03-08T23:54:51.273Z,4.88
2023-03-08T23:57:21.171Z,2.30
2023-03-08T23:59:53.525Z,5.28
